createdAt,value
2022-12-28T00:00:01.228Z,8.50
2022-12-28T00:02:30.569Z,8.13
2022-12-28T00:04:58.996Z,9.13
2022-12-28T00:07:28.792Z,8.93
2022-12-28T00:09:57.205Z,8.52
2022-12-28T00:12:26.280Z,8.07
2022-12-28T00:14:54.717Z,9.33
2022-12-28T00:17:23.149Z,9.00
2022-12-28T00:19:51.581Z,9.63
2022-12-28T00:22:20.044Z,9.10
2022-12-28T00:24:49.782Z,9.75
2022-12-28T00:29:46.271Z,9.15
2022-12-28T00:32:14.741Z,8.68
2022-12-28T00:34:43.192Z,9.00
2022-12-28T00:37:13.241Z,9.25
2022-12-28T00:39:43.067Z,7.90
2022-12-28T00:44:41.231Z,7.70
2022-12-28T00:47:09.688Z,8.48
2022-12-28T00:49:38.092Z,7.60
2022-12-28T00:52:06.652Z,8.52
2022-12-28T00:54:35.099Z,7.53
2022-12-28T00:57:03.471Z,7.80
2022-12-28T00:59:33.245Z,7.75
2022-12-28T01:04:30.040Z,7.47
2022-12-28T01:06:58.497Z,7.63
2022-12-28T01:09:26.955Z,8.70
2022-12-28T01:11:55.368Z,7.70
2022-12-28T01:14:23.897Z,7.60
2022-12-28T01:16:53.714Z,7.45
2022-12-28T01:19:24.009Z,7.03
2022-12-28T01:21:52.718Z,8.50
2022-12-28T01:24:21.203Z,7.30
2022-12-28T01:26:49.638Z,7.47
2022-12-28T01:29:18.038Z,7.40
2022-12-28T01:31:46.572Z,7.30
2022-12-28T01:34:16.368Z,8.00
2022-12-28T01:36:44.741Z,7.50
2022-12-28T01:39:13.149Z,7.55
2022-12-28T01:41:43.126Z,8.27
2022-12-28T01:44:40.191Z,7.55
2022-12-28T01:47:11.734Z,7.35
2022-12-28T01:49:46.004Z,8.10
2022-12-28T01:52:20.737Z,7.63
2022-12-28T01:54:52.322Z,7.43
2022-12-28T01:57:25.791Z,7.38
2022-12-28T01:59:58.228Z,6.95
2022-12-28T02:02:27.584Z,7.63
2022-12-28T02:04:59.874Z,7.45
2022-12-28T02:07:39.181Z,6.45
2022-12-28T02:10:41.545Z,6.82
2022-12-28T02:12:58.658Z,7.63
2022-12-28T02:15:27.219Z,6.95
2022-12-28T02:17:55.934Z,7.00
2022-12-28T02:20:30.957Z,6.72
2022-12-28T02:23:36.508Z,7.00
2022-12-28T02:26:45.326Z,7.03
2022-12-28T02:29:38.717Z,6.47
2022-12-28T02:32:26.279Z,7.30
2022-12-28T02:35:01.836Z,6.70
2022-12-28T02:37:37.476Z,7.05
2022-12-28T02:40:10.726Z,6.50
2022-12-28T02:42:40.575Z,6.85
2022-12-28T02:45:55.296Z,7.20
2022-12-28T02:48:41.652Z,6.40
2022-12-28T02:51:25.808Z,6.80
2022-12-28T02:54:47.125Z,6.55
2022-12-28T02:57:32.160Z,6.72
2022-12-28T03:00:07.850Z,6.72
2022-12-28T03:02:50.528Z,6.45
2022-12-28T03:05:43.697Z,6.45
2022-12-28T03:08:20.826Z,6.70
2022-12-28T03:10:57.022Z,6.90
2022-12-28T03:13:44.226Z,6.22
2022-12-28T03:16:17.886Z,7.10
2022-12-28T03:19:09.239Z,6.13
2022-12-28T03:21:56.076Z,6.25
2022-12-28T03:24:42.764Z,6.53
2022-12-28T03:27:33.084Z,6.15
2022-12-28T03:30:22.551Z,6.28
2022-12-28T03:32:51.758Z,5.75
2022-12-28T03:35:24.661Z,6.90
2022-12-28T03:37:57.818Z,7.07
2022-12-28T03:40:33.881Z,6.38
2022-12-28T03:43:26.135Z,6.95
2022-12-28T03:45:58.377Z,6.25
2022-12-28T03:48:26.885Z,6.05
2022-12-28T03:50:56.960Z,6.63
2022-12-28T03:53:31.762Z,6.60
2022-12-28T03:56:08.243Z,6.75
2022-12-28T03:58:36.982Z,6.32
2022-12-28T04:01:05.608Z,6.22
2022-12-28T04:03:34.880Z,6.78
2022-12-28T04:06:04.952Z,6.75
2022-12-28T04:08:33.859Z,8.05
2022-12-28T04:11:03.185Z,4.73
2022-12-28T04:13:31.802Z,6.15
2022-12-28T04:16:02.192Z,6.57
2022-12-28T04:18:32.161Z,7.25
2022-12-28T04:21:00.933Z,6.50
2022-12-28T04:23:31.544Z,7.05
2022-12-28T04:26:02.085Z,7.35
2022-12-28T04:28:31.975Z,6.70
2022-12-28T04:31:01.684Z,6.30
2022-12-28T04:36:06.756Z,6.63
2022-12-28T04:38:37.412Z,6.53
2022-12-28T04:41:07.740Z,6.90
2022-12-28T04:43:36.830Z,7.00
2022-12-28T04:46:08.525Z,6.03
2022-12-28T04:48:37.341Z,7.13
2022-12-28T04:51:08.837Z,6.00
2022-12-28T04:53:42.301Z,6.03
2022-12-28T04:56:12.795Z,6.68
2022-12-28T04:58:42.021Z,6.53
2022-12-28T05:01:12.889Z,6.85
2022-12-28T05:03:48.195Z,6.38
2022-12-28T05:06:23.369Z,6.78
2022-12-28T05:08:53.220Z,6.28
2022-12-28T05:11:23.514Z,7.00
2022-12-28T05:13:52.294Z,6.03
2022-12-28T05:16:22.900Z,4.82
2022-12-28T05:18:51.933Z,6.90
2022-12-28T05:21:22.321Z,7.15
2022-12-28T05:23:53.337Z,7.03
2022-12-28T05:26:23.670Z,7.03
2022-12-28T05:28:52.402Z,6.13
2022-12-28T05:31:23.484Z,6.28
2022-12-28T05:33:52.686Z,6.50
2022-12-28T05:36:23.407Z,6.63
2022-12-28T05:38:54.800Z,6.90
2022-12-28T05:41:25.381Z,7.07
2022-12-28T05:43:53.879Z,7.10
2022-12-28T05:46:25.242Z,6.50
2022-12-28T05:48:55.272Z,6.90
2022-12-28T05:51:25.069Z,6.75
2022-12-28T05:56:25.185Z,6.28
2022-12-28T05:58:56.338Z,6.57
2022-12-28T06:01:26.403Z,6.57
2022-12-28T06:03:56.490Z,7.45
2022-12-28T06:06:25.456Z,6.45
2022-12-28T06:08:55.910Z,6.67
2022-12-28T06:11:27.540Z,6.60
2022-12-28T06:13:56.937Z,6.35
2022-12-28T06:16:26.743Z,6.20
2022-12-28T06:18:55.806Z,6.38
2022-12-28T06:21:26.297Z,6.10
2022-12-28T06:23:58.763Z,5.93
2022-12-28T06:26:29.335Z,6.00
2022-12-28T06:28:58.353Z,6.30
2022-12-28T06:31:28.549Z,6.25
2022-12-28T06:33:59.182Z,5.97
2022-12-28T06:36:29.267Z,6.43
2022-12-28T06:39:01.136Z,6.43
2022-12-28T06:41:30.015Z,5.43
2022-12-28T06:43:59.347Z,6.17
2022-12-28T06:46:30.757Z,6.57
2022-12-28T06:48:59.875Z,6.00
2022-12-28T06:51:30.038Z,7.03
2022-12-28T06:54:00.114Z,6.30
2022-12-28T06:56:30.841Z,6.65
2022-12-28T06:59:03.223Z,7.28
2022-12-28T07:01:34.650Z,6.47
2022-12-28T07:04:05.473Z,7.00
2022-12-28T07:06:37.627Z,7.95
2022-12-28T07:09:11.010Z,8.18
2022-12-28T07:11:39.424Z,7.50
2022-12-28T07:14:07.944Z,9.65
2022-12-28T07:19:04.088Z,8.38
2022-12-28T07:21:34.682Z,8.48
2022-12-28T07:24:04.543Z,8.07
2022-12-28T07:26:36.797Z,8.95
2022-12-28T07:29:06.909Z,9.88
2022-12-28T07:31:44.156Z,10.07
2022-12-28T07:34:14.189Z,8.73
2022-12-28T07:36:42.921Z,9.52
2022-12-28T07:39:11.363Z,8.73
2022-12-28T07:41:41.354Z,10.73
2022-12-28T07:44:10.220Z,10.38
2022-12-28T07:46:39.530Z,8.90
2022-12-28T07:49:08.229Z,8.98
2022-12-28T07:51:39.108Z,9.02
2022-12-28T07:54:08.088Z,8.30
2022-12-28T07:59:06.958Z,7.60
2022-12-28T08:01:37.972Z,6.68
2022-12-28T08:04:09.181Z,7.45
2022-12-28T08:06:39.138Z,6.90
2022-12-28T08:09:08.784Z,8.30
2022-12-28T08:11:39.643Z,7.88
2022-12-28T08:14:11.175Z,7.47
2022-12-28T08:16:41.253Z,6.53
2022-12-28T08:19:10.348Z,6.68
2022-12-28T08:21:40.671Z,6.95
2022-12-28T08:24:10.837Z,7.72
2022-12-28T08:26:40.795Z,7.57
2022-12-28T08:29:13.888Z,7.72
2022-12-28T08:31:45.067Z,6.53
2022-12-28T08:34:16.114Z,6.78
2022-12-28T08:36:44.667Z,6.63
2022-12-28T08:39:14.433Z,6.68
2022-12-28T08:44:12.470Z,6.70
2022-12-28T08:49:10.369Z,7.00
2022-12-28T08:51:41.381Z,6.22
2022-12-28T08:54:10.876Z,6.60
2022-12-28T08:56:41.249Z,7.22
2022-12-28T08:59:10.280Z,6.43
2022-12-28T09:01:44.301Z,6.35
2022-12-28T09:04:15.984Z,6.15
2022-12-28T09:06:44.392Z,6.20
2022-12-28T09:09:14.713Z,5.88
2022-12-28T09:11:44.051Z,6.72
2022-12-28T09:14:22.132Z,6.15
2022-12-28T09:16:53.755Z,6.87
2022-12-28T09:19:22.642Z,6.28
2022-12-28T09:21:53.065Z,6.75
2022-12-28T09:24:21.992Z,6.45
2022-12-28T09:26:52.454Z,6.53
2022-12-28T09:29:20.975Z,6.55
2022-12-28T09:31:49.433Z,5.47
2022-12-28T09:34:36.932Z,5.97
2022-12-28T09:37:06.536Z,5.65
2022-12-28T09:39:35.153Z,5.63
2022-12-28T09:42:05.990Z,5.75
2022-12-28T09:44:46.967Z,5.57
2022-12-28T09:47:26.408Z,6.18
2022-12-28T09:50:30.803Z,6.20
2022-12-28T09:53:21.932Z,5.28
2022-12-28T09:55:58.494Z,5.03
2022-12-28T09:58:28.013Z,6.18
2022-12-28T10:00:57.996Z,5.20
2022-12-28T10:03:28.200Z,5.03
2022-12-28T10:05:58.802Z,5.18
2022-12-28T10:08:29.020Z,5.55
2022-12-28T10:11:02.899Z,4.93
2022-12-28T10:13:54.094Z,4.65
2022-12-28T10:16:25.202Z,5.22
2022-12-28T10:18:54.214Z,5.20
2022-12-28T10:28:13.032Z,4.95
2022-12-28T10:30:49.713Z,4.95
2022-12-28T10:33:19.695Z,4.95
2022-12-28T10:35:54.762Z,4.47
2022-12-28T10:38:25.472Z,5.00
2022-12-28T10:41:01.106Z,4.55
2022-12-28T10:43:34.251Z,4.60
2022-12-28T10:46:05.431Z,4.50
2022-12-28T10:48:39.201Z,5.18
2022-12-28T10:51:14.742Z,4.18
2022-12-28T10:53:46.302Z,4.68
2022-12-28T10:56:32.817Z,5.28
2022-12-28T10:59:23.989Z,4.72
2022-12-28T11:01:52.541Z,4.85
2022-12-28T11:04:23.014Z,5.38
2022-12-28T11:10:14.349Z,4.72
2022-12-28T11:12:45.513Z,4.90
2022-12-28T11:15:19.906Z,4.95
2022-12-28T11:17:54.925Z,4.80
2022-12-28T11:20:26.752Z,5.43
2022-12-28T11:22:55.828Z,4.88
2022-12-28T11:25:30.189Z,5.00
2022-12-28T11:27:59.636Z,5.57
2022-12-28T11:30:31.872Z,5.28
2022-12-28T11:33:04.834Z,5.43
2022-12-28T11:35:37.085Z,4.90
2022-12-28T11:38:07.550Z,4.93
2022-12-28T11:40:50.586Z,4.80
2022-12-28T11:43:53.577Z,5.47
2022-12-28T11:46:42.928Z,5.20
2022-12-28T11:49:30.266Z,5.55
2022-12-28T11:52:46.342Z,5.53
2022-12-28T11:55:36.874Z,5.80
2022-12-28T11:58:54.305Z,5.38
2022-12-28T12:01:43.714Z,5.05
2022-12-28T12:04:27.836Z,5.45
2022-12-28T12:07:41.292Z,6.20
2022-12-28T12:10:20.981Z,5.90
2022-12-28T12:12:52.905Z,6.05
2022-12-28T12:15:25.698Z,5.97
2022-12-28T12:18:02.140Z,6.55
2022-12-28T12:20:46.160Z,6.60
2022-12-28T12:23:23.299Z,6.05
2022-12-28T12:29:38.462Z,6.05
2022-12-28T12:32:12.703Z,6.03
2022-12-28T12:34:46.083Z,6.65
2022-12-28T12:37:45.763Z,6.32
2022-12-28T12:40:49.512Z,6.32
2022-12-28T12:43:32.949Z,6.97
2022-12-28T12:46:18.528Z,6.25
2022-12-28T12:49:18.990Z,6.68
2022-12-28T12:51:58.037Z,7.20
2022-12-28T12:54:38.327Z,6.72
2022-12-28T12:57:14.579Z,6.65
2022-12-28T13:00:02.933Z,6.68
2022-12-28T13:03:01.497Z,6.63
2022-12-28T13:05:32.263Z,6.43
2022-12-28T13:08:02.788Z,6.70
2022-12-28T13:10:35.418Z,6.18
2022-12-28T13:13:06.236Z,6.90
2022-12-28T13:15:35.482Z,6.45
2022-12-28T13:20:58.622Z,6.55
2022-12-28T13:23:30.596Z,6.20
2022-12-28T13:26:01.167Z,6.95
2022-12-28T13:28:31.493Z,6.97
2022-12-28T13:31:07.598Z,6.78
2022-12-28T13:33:36.139Z,7.00
2022-12-28T13:36:15.242Z,6.55
2022-12-28T13:38:45.042Z,6.30
2022-12-28T13:44:21.389Z,6.50
2022-12-28T13:46:55.815Z,6.80
2022-12-28T13:49:28.527Z,7.78
2022-12-28T13:51:57.448Z,6.47
2022-12-28T13:54:27.965Z,5.90
2022-12-28T13:57:20.600Z,6.80
2022-12-28T13:59:48.029Z,7.43
2022-12-28T14:02:19.984Z,6.70
2022-12-28T14:04:53.143Z,6.63
2022-12-28T14:07:27.263Z,6.30
2022-12-28T14:09:58.000Z,6.55
2022-12-28T14:12:26.724Z,5.65
2022-12-28T14:14:55.551Z,6.53
2022-12-28T14:17:24.539Z,6.43
2022-12-28T14:19:55.995Z,6.20
2022-12-28T14:22:32.661Z,6.60
2022-12-28T14:25:07.577Z,6.47
2022-12-28T14:27:39.335Z,5.82
2022-12-28T14:30:21.011Z,7.05
2022-12-28T14:32:49.543Z,6.80
2022-12-28T14:35:20.788Z,6.20
2022-12-28T14:37:53.812Z,7.18
2022-12-28T14:40:33.119Z,6.57
2022-12-28T14:43:08.186Z,6.68
2022-12-28T14:48:36.414Z,6.90
2022-12-28T14:51:07.171Z,7.25
2022-12-28T14:53:35.837Z,6.60
2022-12-28T14:56:11.152Z,7.05
2022-12-28T14:58:51.157Z,7.43
2022-12-28T15:01:21.672Z,6.95
2022-12-28T15:03:52.822Z,8.02
2022-12-28T15:06:21.583Z,7.50
2022-12-28T15:08:50.958Z,7.55
2022-12-28T15:11:22.493Z,7.15
2022-12-28T15:13:51.406Z,7.05
2022-12-28T15:16:22.795Z,8.07
2022-12-28T15:18:51.423Z,8.32
2022-12-28T15:21:21.836Z,7.28
2022-12-28T15:23:50.642Z,7.63
2022-12-28T15:26:21.374Z,7.40
2022-12-28T15:28:49.768Z,6.88
2022-12-28T15:31:19.960Z,8.10
2022-12-28T15:33:48.951Z,6.53
2022-12-28T15:36:20.046Z,7.43
2022-12-28T15:38:49.643Z,6.93
2022-12-28T15:41:37.571Z,6.88
2022-12-28T15:44:06.775Z,6.60
2022-12-28T15:46:35.580Z,4.53
2022-12-28T15:49:04.573Z,6.00
2022-12-28T15:51:33.101Z,6.60
2022-12-28T15:54:01.518Z,6.57
2022-12-28T15:56:33.360Z,6.40
2022-12-28T15:59:03.831Z,8.10
2022-12-28T16:01:33.015Z,7.57
2022-12-28T16:04:02.945Z,6.30
2022-12-28T16:09:05.067Z,6.45
2022-12-28T16:11:35.081Z,6.50
2022-12-28T16:14:05.303Z,6.40
2022-12-28T16:16:36.850Z,6.38
2022-12-28T16:19:06.788Z,6.75
2022-12-28T16:24:04.389Z,6.20
2022-12-28T16:26:34.614Z,5.60
2022-12-28T16:29:03.323Z,5.90
2022-12-28T16:31:34.941Z,5.32
2022-12-28T16:34:05.081Z,5.80
2022-12-28T16:36:34.032Z,5.18
2022-12-28T16:39:05.535Z,5.83
2022-12-28T16:41:37.351Z,6.53
2022-12-28T16:44:09.310Z,5.15
2022-12-28T16:46:37.765Z,6.07
2022-12-28T16:49:06.258Z,5.97
2022-12-28T16:51:34.924Z,5.57
2022-12-28T16:54:03.500Z,5.80
2022-12-28T16:56:31.941Z,5.20
2022-12-28T16:59:02.121Z,5.55
2022-12-28T17:01:30.986Z,5.00
2022-12-28T17:04:04.219Z,5.33
2022-12-28T17:06:33.087Z,6.07
2022-12-28T17:09:02.548Z,5.25
2022-12-28T17:11:31.284Z,5.68
2022-12-28T17:14:06.165Z,5.13
2022-12-28T17:16:35.111Z,15.75
2022-12-28T17:19:03.689Z,7.43
2022-12-28T17:21:33.084Z,7.10
2022-12-28T17:24:01.807Z,5.68
2022-12-28T17:26:30.287Z,5.45
2022-12-28T17:28:59.141Z,5.57
2022-12-28T17:31:29.575Z,5.50
2022-12-28T17:33:59.297Z,4.85
2022-12-28T17:36:28.420Z,5.60
2022-12-28T17:38:57.065Z,5.72
2022-12-28T17:41:27.611Z,5.50
2022-12-28T17:43:57.587Z,6.05
2022-12-28T17:46:29.013Z,6.05
2022-12-28T17:48:59.411Z,5.80
2022-12-28T17:51:29.334Z,6.18
2022-12-28T17:53:58.354Z,5.68
2022-12-28T17:56:27.296Z,5.20
2022-12-28T17:58:57.572Z,6.75
2022-12-28T18:01:28.344Z,5.80
2022-12-28T18:03:57.555Z,5.97
2022-12-28T18:06:26.601Z,5.72
2022-12-28T18:08:55.034Z,5.90
2022-12-28T18:11:23.805Z,5.97
2022-12-28T18:13:52.262Z,5.75
2022-12-28T18:16:21.177Z,6.10
2022-12-28T18:18:50.997Z,6.00
2022-12-28T18:21:23.043Z,5.07
2022-12-28T18:23:53.618Z,5.22
2022-12-28T18:26:26.016Z,5.85
2022-12-28T18:28:54.774Z,6.38
2022-12-28T18:31:23.510Z,6.47
2022-12-28T18:33:53.480Z,6.78
2022-12-28T18:38:50.733Z,5.00
2022-12-28T18:41:20.756Z,4.95
2022-12-28T18:43:51.290Z,4.50
2022-12-28T18:46:19.937Z,4.68
2022-12-28T18:48:48.364Z,5.28
2022-12-28T18:51:19.021Z,5.30
2022-12-28T18:53:50.047Z,5.35
2022-12-28T18:56:20.667Z,5.07
2022-12-28T18:58:53.314Z,4.70
2022-12-28T19:04:12.658Z,5.35
2022-12-28T19:06:43.633Z,5.07
2022-12-28T19:09:12.349Z,5.68
2022-12-28T19:11:41.402Z,4.82
2022-12-28T19:14:12.729Z,4.97
2022-12-28T19:16:41.556Z,5.10
2022-12-28T19:19:11.170Z,4.43
2022-12-28T19:21:41.056Z,7.63
2022-12-28T19:26:42.532Z,4.40
2022-12-28T19:29:12.191Z,5.17
2022-12-28T19:31:40.742Z,4.93
2022-12-28T19:34:09.307Z,4.68
2022-12-28T19:36:37.765Z,4.85
2022-12-28T19:39:06.625Z,4.43
2022-12-28T19:41:36.559Z,4.97
2022-12-28T19:46:33.835Z,4.72
2022-12-28T19:49:04.705Z,4.60
2022-12-28T19:51:33.970Z,4.35
2022-12-28T19:54:02.875Z,4.95
2022-12-28T19:56:31.723Z,5.00
2022-12-28T19:59:06.708Z,4.63
2022-12-28T20:01:36.985Z,4.28
2022-12-28T20:04:12.793Z,4.57
2022-12-28T20:06:43.304Z,4.80
2022-12-28T20:09:13.138Z,4.90
2022-12-28T20:11:41.819Z,4.65
2022-12-28T20:14:13.979Z,4.47
2022-12-28T20:16:43.643Z,4.90
2022-12-28T20:19:12.992Z,4.78
2022-12-28T20:21:42.408Z,5.18
2022-12-28T20:24:13.025Z,4.95
2022-12-28T20:26:41.575Z,4.43
2022-12-28T20:29:10.160Z,4.20
2022-12-28T20:31:40.067Z,4.25
2022-12-28T20:34:08.538Z,4.22
2022-12-28T20:36:37.125Z,4.28
2022-12-28T20:39:05.656Z,4.90
2022-12-28T20:41:52.125Z,4.70
2022-12-28T20:44:25.375Z,4.38
2022-12-28T20:46:56.012Z,4.30
2022-12-28T20:49:25.510Z,4.15
2022-12-28T20:51:55.148Z,4.35
2022-12-28T20:54:24.468Z,4.32
2022-12-28T20:56:55.855Z,5.15
2022-12-28T20:59:25.916Z,4.28
2022-12-28T21:04:24.854Z,4.50
2022-12-28T21:06:53.597Z,5.15
2022-12-28T21:09:22.450Z,4.40
2022-12-28T21:11:50.976Z,4.13
2022-12-28T21:14:19.558Z,5.13
2022-12-28T21:16:48.030Z,4.07
2022-12-28T21:19:17.829Z,4.68
2022-12-28T21:21:48.406Z,4.82
2022-12-28T21:24:16.811Z,4.78
2022-12-28T21:26:45.691Z,4.47
2022-12-28T21:29:14.481Z,4.40
2022-12-28T21:31:44.466Z,4.50
2022-12-28T21:34:12.988Z,4.80
2022-12-28T21:36:42.817Z,4.57
2022-12-28T21:41:51.167Z,3.75
2022-12-28T21:44:21.769Z,4.30
2022-12-28T21:46:51.639Z,3.88
2022-12-28T21:51:50.060Z,4.10
2022-12-28T21:54:20.490Z,5.50
2022-12-28T21:56:54.125Z,3.83
2022-12-28T21:59:24.185Z,3.90
2022-12-28T22:02:10.538Z,4.10
2022-12-28T22:05:02.085Z,4.22
2022-12-28T22:07:35.636Z,4.03
2022-12-28T22:10:18.406Z,4.10
2022-12-28T22:12:47.203Z,3.78
2022-12-28T22:15:35.279Z,3.55
2022-12-28T22:18:05.547Z,3.88
2022-12-28T22:20:36.219Z,3.42
2022-12-28T22:23:07.220Z,3.70
2022-12-28T22:25:36.701Z,3.90
2022-12-28T22:28:06.386Z,3.40
2022-12-28T22:30:36.751Z,3.58
2022-12-28T22:33:05.673Z,3.80
2022-12-28T22:35:34.360Z,3.92
2022-12-28T22:38:02.848Z,3.67
2022-12-28T22:40:32.594Z,3.78
2022-12-28T22:43:01.048Z,3.00
2022-12-28T22:45:29.469Z,3.60
2022-12-28T22:47:59.477Z,3.30
2022-12-28T22:50:28.795Z,3.85
2022-12-28T22:52:58.215Z,3.10
2022-12-28T22:55:26.714Z,3.85
2022-12-28T22:57:56.458Z,3.42
2022-12-28T23:00:24.856Z,3.75
2022-12-28T23:02:53.450Z,3.50
2022-12-28T23:05:22.044Z,3.70
2022-12-28T23:07:50.705Z,3.20
2022-12-28T23:10:19.142Z,3.53
2022-12-28T23:12:47.606Z,3.28
2022-12-28T23:15:18.584Z,3.55
2022-12-28T23:17:48.145Z,3.38
2022-12-28T23:20:34.435Z,3.53
2022-12-28T23:23:20.234Z,3.42
2022-12-28T23:26:06.019Z,3.92
2022-12-28T23:28:36.003Z,3.67
2022-12-28T23:31:06.395Z,3.53
2022-12-28T23:33:36.723Z,3.13
2022-12-28T23:36:06.136Z,3.63
2022-12-28T23:38:34.753Z,3.85
2022-12-28T23:41:24.526Z,3.75
2022-12-28T23:43:52.945Z,3.42
2022-12-28T23:46:22.933Z,3.55
2022-12-28T23:48:51.339Z,3.97
2022-12-28T23:51:19.847Z,3.30
2022-12-28T23:53:48.565Z,3.55
2022-12-28T23:56:17.106Z,4.10
2022-12-28T23:58:45.496Z,3.50
